sensor_id;sensor_type;location;lat;lon;timestamp;P1;durP1;ratioP1;P2;durP2;ratioP2
41141;SDS011;63666;52.284;20.890;2023-03-01T00:02:24;18.90;;;16.60;;
41141;SDS011;63666;52.284;20.890;2023-03-01T00:04:58;19.10;;;16.80;;
41141;SDS011;63666;52.284;20.890;2023-03-01T00:07:31;18.90;;;16.80;;
41141;SDS011;63666;52.284;20.890;2023-03-01T00:10:05;19.50;;;16.50;;
41141;SDS011;63666;52.284;20.890;2023-03-01T00:12:36;19.30;;;16.80;;
41141;SDS011;63666;52.284;20.890;2023-03-01T00:15:09;20.20;;;16.80;;
41141;SDS011;63666;52.284;20.890;2023-03-01T00:17:41;20.30;;;17.00;;
41141;SDS011;63666;52.284;20.890;2023-03-01T00:20:14;19.00;;;16.60;;
41141;SDS011;63666;52.284;20.890;2023-03-01T00:22:45;18.80;;;16.40;;
41141;SDS011;63666;52.284;20.890;2023-03-01T00:25:15;20.90;;;17.40;;
41141;SDS011;63666;52.284;20.890;2023-03-01T00:27:47;19.10;;;16.60;;
41141;SDS011;63666;52.284;20.890;2023-03-01T00:30:20;19.40;;;16.60;;
41141;SDS011;63666;52.284;20.890;2023-03-01T00:32:53;20.90;;;17.00;;
41141;SDS011;63666;52.284;20.890;2023-03-01T00:35:23;18.90;;;16.70;;
41141;SDS011;63666;52.284;20.890;2023-03-01T00:37:57;19.40;;;16.60;;
41141;SDS011;63666;52.284;20.890;2023-03-01T00:40:31;19.30;;;17.20;;
41141;SDS011;63666;52.284;20.890;2023-03-01T00:43:04;19.80;;;17.10;;
41141;SDS011;63666;52.284;20.890;2023-03-01T00:45:37;19.50;;;16.90;;
41141;SDS011;63666;52.284;20.890;2023-03-01T00:48:07;18.60;;;16.50;;
41141;SDS011;63666;52.284;20.890;2023-03-01T00:50:41;20.20;;;17.00;;
41141;SDS011;63666;52.284;20.890;2023-03-01T00:53:11;18.70;;;16.70;;
41141;SDS011;63666;52.284;20.890;2023-03-01T00:55:41;19.20;;;16.90;;
41141;SDS011;63666;52.284;20.890;2023-03-01T00:58:17;19.80;;;16.10;;
41141;SDS011;63666;52.284;20.890;2023-03-01T01:00:49;19.40;;;17.20;;
41141;SDS011;63666;52.284;20.890;2023-03-01T01:03:21;20.70;;;17.10;;
41141;SDS011;63666;52.284;20.890;2023-03-01T01:05:53;19.90;;;16.90;;
41141;SDS011;63666;52.284;20.890;2023-03-01T01:08:27;19.30;;;16.70;;
41141;SDS011;63666;52.284;20.890;2023-03-01T01:10:58;19.50;;;17.20;;
41141;SDS011;63666;52.284;20.890;2023-03-01T01:13:28;19.30;;;17.00;;
41141;SDS011;63666;52.284;20.890;2023-03-01T01:16:02;19.90;;;17.20;;
41141;SDS011;63666;52.284;20.890;2023-03-01T01:18:33;19.10;;;16.80;;
41141;SDS011;63666;52.284;20.890;2023-03-01T01:21:10;19.80;;;16.60;;
41141;SDS011;63666;52.284;20.890;2023-03-01T01:23:44;20.30;;;16.90;;
41141;SDS011;63666;52.284;20.890;2023-03-01T01:26:16;19.10;;;16.20;;
41141;SDS011;63666;52.284;20.890;2023-03-01T01:28:48;20.10;;;16.80;;
41141;SDS011;63666;52.284;20.890;2023-03-01T01:31:18;19.80;;;16.90;;
41141;SDS011;63666;52.284;20.890;2023-03-01T01:33:52;19.80;;;16.70;;
41141;SDS011;63666;52.284;20.890;2023-03-01T01:36:24;18.80;;;16.50;;
41141;SDS011;63666;52.284;20.890;2023-03-01T01:38:57;19.20;;;16.10;;
41141;SDS011;63666;52.284;20.890;2023-03-01T01:41:28;19.30;;;16.60;;
41141;SDS011;63666;52.284;20.890;2023-03-01T01:44:17;19.10;;;16.90;;
41141;SDS011;63666;52.284;20.890;2023-03-01T01:46:52;19.40;;;16.60;;
41141;SDS011;63666;52.284;20.890;2023-03-01T01:49:30;19.50;;;16.70;;
41141;SDS011;63666;52.284;20.890;2023-03-01T01:52:07;19.80;;;16.30;;
41141;SDS011;63666;52.284;20.890;2023-03-01T01:54:43;19.20;;;16.30;;
41141;SDS011;63666;52.284;20.890;2023-03-01T01:57:21;20.10;;;17.10;;
41141;SDS011;63666;52.284;20.890;2023-03-01T01:59:54;20.20;;;17.30;;
41141;SDS011;63666;52.284;20.890;2023-03-01T02:02:27;19.70;;;17.00;;
41141;SDS011;63666;52.284;20.890;2023-03-01T02:05:03;19.30;;;16.50;;
41141;SDS011;63666;52.284;20.890;2023-03-01T02:07:39;18.70;;;16.00;;
41141;SDS011;63666;52.284;20.890;2023-03-01T02:10:19;18.20;;;16.20;;
41141;SDS011;63666;52.284;20.890;2023-03-01T02:12:50;19.40;;;16.20;;
41141;SDS011;63666;52.284;20.890;2023-03-01T02:15:23;19.40;;;16.40;;
41141;SDS011;63666;52.284;20.890;2023-03-01T02:17:58;19.00;;;16.50;;
41141;SDS011;63666;52.284;20.890;2023-03-01T02:20:35;19.10;;;17.00;;
41141;SDS011;63666;52.284;20.890;2023-03-01T02:23:14;19.80;;;17.00;;
41141;SDS011;63666;52.284;20.890;2023-03-01T02:25:49;19.50;;;16.30;;
41141;SDS011;63666;52.284;20.890;2023-03-01T02:28:31;18.40;;;16.40;;
41141;SDS011;63666;52.284;20.890;2023-03-01T02:31:05;20.30;;;16.70;;
41141;SDS011;63666;52.284;20.890;2023-03-01T02:33:56;19.40;;;16.30;;
41141;SDS011;63666;52.284;20.890;2023-03-01T02:36:33;19.20;;;16.80;;
41141;SDS011;63666;52.284;20.890;2023-03-01T02:39:14;20.10;;;16.50;;
41141;SDS011;63666;52.284;20.890;2023-03-01T02:41:51;18.50;;;16.50;;
41141;SDS011;63666;52.284;20.890;2023-03-01T02:44:24;18.90;;;16.10;;
41141;SDS011;63666;52.284;20.890;2023-03-01T02:46:57;18.60;;;16.00;;
41141;SDS011;63666;52.284;20.890;2023-03-01T02:49:34;18.90;;;16.50;;
41141;SDS011;63666;52.284;20.890;2023-03-01T02:52:36;19.90;;;16.20;;
41141;SDS011;63666;52.284;20.890;2023-03-01T02:55:14;19.30;;;16.60;;
41141;SDS011;63666;52.284;20.890;2023-03-01T02:57:51;18.70;;;16.30;;
41141;SDS011;63666;52.284;20.890;2023-03-01T03:00:24;18.70;;;16.00;;
41141;SDS011;63666;52.284;20.890;2023-03-01T03:02:57;19.80;;;16.80;;
41141;SDS011;63666;52.284;20.890;2023-03-01T03:05:29;19.40;;;16.00;;
41141;SDS011;63666;52.284;20.890;2023-03-01T03:08:03;18.80;;;16.10;;
41141;SDS011;63666;52.284;20.890;2023-03-01T03:10:39;19.20;;;16.00;;
41141;SDS011;63666;52.284;20.890;2023-03-01T03:13:12;19.80;;;16.20;;
41141;SDS011;63666;52.284;20.890;2023-03-01T03:15:43;19.60;;;16.40;;
41141;SDS011;63666;52.284;20.890;2023-03-01T03:18:16;19.00;;;16.20;;
41141;SDS011;63666;52.284;20.890;2023-03-01T03:20:48;18.30;;;15.90;;
41141;SDS011;63666;52.284;20.890;2023-03-01T03:23:21;19.60;;;16.90;;
41141;SDS011;63666;52.284;20.890;2023-03-01T03:25:55;20.50;;;16.80;;
41141;SDS011;63666;52.284;20.890;2023-03-01T03:28:25;19.70;;;16.80;;
41141;SDS011;63666;52.284;20.890;2023-03-01T03:30:56;18.40;;;16.00;;
41141;SDS011;63666;52.284;20.890;2023-03-01T03:33:29;18.90;;;16.30;;
41141;SDS011;63666;52.284;20.890;2023-03-01T03:36:00;19.70;;;16.00;;
41141;SDS011;63666;52.284;20.890;2023-03-01T03:38:33;19.70;;;16.50;;
41141;SDS011;63666;52.284;20.890;2023-03-01T03:41:08;18.00;;;15.70;;
41141;SDS011;63666;52.284;20.890;2023-03-01T03:43:44;19.20;;;16.00;;
41141;SDS011;63666;52.284;20.890;2023-03-01T03:46:16;18.90;;;15.70;;
41141;SDS011;63666;52.284;20.890;2023-03-01T03:48:47;19.40;;;16.50;;
41141;SDS011;63666;52.284;20.890;2023-03-01T03:51:19;18.10;;;15.80;;
41141;SDS011;63666;52.284;20.890;2023-03-01T03:53:51;19.60;;;16.30;;
41141;SDS011;63666;52.284;20.890;2023-03-01T03:56:21;19.60;;;16.70;;
41141;SDS011;63666;52.284;20.890;2023-03-01T03:58:56;18.60;;;16.00;;
41141;SDS011;63666;52.284;20.890;2023-03-01T04:01:29;18.80;;;15.80;;
41141;SDS011;63666;52.284;20.890;2023-03-01T04:03:59;18.10;;;15.80;;
41141;SDS011;63666;52.284;20.890;2023-03-01T04:06:34;18.90;;;15.60;;
41141;SDS011;63666;52.284;20.890;2023-03-01T04:09:09;18.50;;;16.00;;
41141;SDS011;63666;52.284;20.890;2023-03-01T04:11:39;18.20;;;15.80;;
41141;SDS011;63666;52.284;20.890;2023-03-01T04:14:10;18.20;;;16.10;;
41141;SDS011;63666;52.284;20.890;2023-03-01T04:16:41;19.00;;;15.50;;
41141;SDS011;63666;52.284;20.890;2023-03-01T04:19:11;18.50;;;15.90;;
41141;SDS011;63666;52.284;20.890;2023-03-01T04:21:47;19.10;;;16.30;;
41141;SDS011;63666;52.284;20.890;2023-03-01T04:24:20;18.30;;;15.70;;
41141;SDS011;63666;52.284;20.890;2023-03-01T04:26:54;18.50;;;16.20;;
41141;SDS011;63666;52.284;20.890;2023-03-01T04:29:27;19.30;;;16.00;;
41141;SDS011;63666;52.284;20.890;2023-03-01T04:32:04;17.90;;;15.40;;
41141;SDS011;63666;52.284;20.890;2023-03-01T04:34:35;19.00;;;15.70;;
41141;SDS011;63666;52.284;20.890;2023-03-01T04:37:05;19.20;;;15.90;;
41141;SDS011;63666;52.284;20.890;2023-03-01T04:39:41;19.40;;;15.90;;
41141;SDS011;63666;52.284;20.890;2023-03-01T04:42:14;19.80;;;16.30;;
41141;SDS011;63666;52.284;20.890;2023-03-01T04:44:45;19.60;;;16.10;;
41141;SDS011;63666;52.284;20.890;2023-03-01T04:47:16;18.70;;;15.90;;
41141;SDS011;63666;52.284;20.890;2023-03-01T04:49:49;21.00;;;17.40;;
41141;SDS011;63666;52.284;20.890;2023-03-01T04:52:20;19.70;;;16.20;;
41141;SDS011;63666;52.284;20.890;2023-03-01T04:54:50;19.40;;;16.30;;
41141;SDS011;63666;52.284;20.890;2023-03-01T04:57:23;20.60;;;16.70;;
41141;SDS011;63666;52.284;20.890;2023-03-01T04:59:54;19.70;;;16.40;;
41141;SDS011;63666;52.284;20.890;2023-03-01T05:02:25;19.70;;;16.30;;
41141;SDS011;63666;52.284;20.890;2023-03-01T05:04:58;19.60;;;16.40;;
41141;SDS011;63666;52.284;20.890;2023-03-01T05:07:29;20.00;;;16.50;;
41141;SDS011;63666;52.284;20.890;2023-03-01T05:10:05;20.70;;;16.50;;
41141;SDS011;63666;52.284;20.890;2023-03-01T05:12:37;19.80;;;16.70;;
41141;SDS011;63666;52.284;20.890;2023-03-01T05:15:11;20.10;;;16.00;;
41141;SDS011;63666;52.284;20.890;2023-03-01T05:17:41;20.30;;;16.40;;
41141;SDS011;63666;52.284;20.890;2023-03-01T05:20:13;20.00;;;16.60;;
41141;SDS011;63666;52.284;20.890;2023-03-01T05:22:48;18.40;;;16.20;;
41141;SDS011;63666;52.284;20.890;2023-03-01T05:25:22;19.90;;;16.20;;
41141;SDS011;63666;52.284;20.890;2023-03-01T05:27:52;18.50;;;15.90;;
41141;SDS011;63666;52.284;20.890;2023-03-01T05:30:24;19.90;;;16.30;;
41141;SDS011;63666;52.284;20.890;2023-03-01T05:32:56;19.00;;;16.70;;
41141;SDS011;63666;52.284;20.890;2023-03-01T05:35:27;19.50;;;15.70;;
41141;SDS011;63666;52.284;20.890;2023-03-01T05:38:00;20.40;;;16.10;;
41141;SDS011;63666;52.284;20.890;2023-03-01T05:40:35;20.10;;;16.60;;
41141;SDS011;63666;52.284;20.890;2023-03-01T05:43:08;20.10;;;16.70;;
41141;SDS011;63666;52.284;20.890;2023-03-01T05:45:41;20.20;;;16.40;;
41141;SDS011;63666;52.284;20.890;2023-03-01T05:48:12;19.60;;;16.10;;
41141;SDS011;63666;52.284;20.890;2023-03-01T05:50:44;19.20;;;15.70;;
41141;SDS011;63666;52.284;20.890;2023-03-01T05:53:18;20.60;;;16.10;;
41141;SDS011;63666;52.284;20.890;2023-03-01T05:55:49;20.20;;;16.70;;
41141;SDS011;63666;52.284;20.890;2023-03-01T05:58:20;19.70;;;16.20;;
41141;SDS011;63666;52.284;20.890;2023-03-01T06:00:51;18.90;;;16.20;;
41141;SDS011;63666;52.284;20.890;2023-03-01T06:03:23;19.00;;;15.80;;
41141;SDS011;63666;52.284;20.890;2023-03-01T06:05:57;19.80;;;16.30;;
41141;SDS011;63666;52.284;20.890;2023-03-01T06:08:27;19.00;;;15.30;;
41141;SDS011;63666;52.284;20.890;2023-03-01T06:10:58;19.80;;;16.30;;
41141;SDS011;63666;52.284;20.890;2023-03-01T06:13:32;19.30;;;16.00;;
41141;SDS011;63666;52.284;20.890;2023-03-01T06:16:05;19.50;;;16.00;;
41141;SDS011;63666;52.284;20.890;2023-03-01T06:18:37;19.20;;;15.50;;
41141;SDS011;63666;52.284;20.890;2023-03-01T06:21:08;18.20;;;15.60;;
41141;SDS011;63666;52.284;20.890;2023-03-01T06:23:38;18.30;;;15.60;;
41141;SDS011;63666;52.284;20.890;2023-03-01T06:26:10;19.20;;;16.00;;
41141;SDS011;63666;52.284;20.890;2023-03-01T06:28:42;21.30;;;15.80;;
41141;SDS011;63666;52.284;20.890;2023-03-01T06:31:15;18.70;;;15.80;;
41141;SDS011;63666;52.284;20.890;2023-03-01T06:33:47;18.70;;;15.90;;
41141;SDS011;63666;52.284;20.890;2023-03-01T06:36:20;19.60;;;15.60;;
41141;SDS011;63666;52.284;20.890;2023-03-01T06:38:55;20.00;;;15.90;;
41141;SDS011;63666;52.284;20.890;2023-03-01T06:41:26;17.70;;;15.10;;
41141;SDS011;63666;52.284;20.890;2023-03-01T06:43:57;18.30;;;15.70;;
41141;SDS011;63666;52.284;20.890;2023-03-01T06:46:28;20.00;;;15.70;;
41141;SDS011;63666;52.284;20.890;2023-03-01T06:49:02;18.70;;;16.00;;
41141;SDS011;63666;52.284;20.890;2023-03-01T06:51:38;20.20;;;16.00;;
41141;SDS011;63666;52.284;20.890;2023-03-01T06:54:11;19.30;;;16.00;;
41141;SDS011;63666;52.284;20.890;2023-03-01T06:56:47;19.10;;;15.30;;
41141;SDS011;63666;52.284;20.890;2023-03-01T06:59:19;17.40;;;15.30;;
41141;SDS011;63666;52.284;20.890;2023-03-01T07:01:49;18.40;;;15.50;;
41141;SDS011;63666;52.284;20.890;2023-03-01T07:04:25;17.50;;;15.20;;
41141;SDS011;63666;52.284;20.890;2023-03-01T07:06:57;17.90;;;15.00;;
41141;SDS011;63666;52.284;20.890;2023-03-01T07:09:30;18.10;;;15.30;;
41141;SDS011;63666;52.284;20.890;2023-03-01T07:12:08;18.00;;;15.10;;
41141;SDS011;63666;52.284;20.890;2023-03-01T07:14:38;18.10;;;15.00;;
41141;SDS011;63666;52.284;20.890;2023-03-01T07:17:11;18.20;;;15.20;;
41141;SDS011;63666;52.284;20.890;2023-03-01T07:19:41;18.20;;;15.10;;
41141;SDS011;63666;52.284;20.890;2023-03-01T07:22:15;18.00;;;15.20;;
41141;SDS011;63666;52.284;20.890;2023-03-01T07:24:48;17.60;;;14.70;;
41141;SDS011;63666;52.284;20.890;2023-03-01T07:27:23;17.30;;;14.80;;
41141;SDS011;63666;52.284;20.890;2023-03-01T07:29:57;17.50;;;15.20;;
41141;SDS011;63666;52.284;20.890;2023-03-01T07:32:32;17.80;;;14.60;;
41141;SDS011;63666;52.284;20.890;2023-03-01T07:35:12;17.40;;;14.30;;
41141;SDS011;63666;52.284;20.890;2023-03-01T07:37:44;17.40;;;14.50;;
41141;SDS011;63666;52.284;20.890;2023-03-01T07:40:17;17.00;;;14.30;;
41141;SDS011;63666;52.284;20.890;2023-03-01T07:42:55;16.70;;;14.30;;
41141;SDS011;63666;52.284;20.890;2023-03-01T07:45:29;16.60;;;14.10;;
41141;SDS011;63666;52.284;20.890;2023-03-01T07:47:59;17.40;;;14.70;;
41141;SDS011;63666;52.284;20.890;2023-03-01T07:50:30;17.50;;;14.50;;
41141;SDS011;63666;52.284;20.890;2023-03-01T07:53:04;17.30;;;14.50;;
41141;SDS011;63666;52.284;20.890;2023-03-01T07:55:40;17.60;;;15.20;;
41141;SDS011;63666;52.284;20.890;2023-03-01T07:58:12;18.60;;;15.40;;
41141;SDS011;63666;52.284;20.890;2023-03-01T08:00:42;18.60;;;15.20;;
41141;SDS011;63666;52.284;20.890;2023-03-01T08:03:15;19.40;;;15.50;;
41141;SDS011;63666;52.284;20.890;2023-03-01T08:05:47;18.40;;;14.90;;
41141;SDS011;63666;52.284;20.890;2023-03-01T08:08:22;17.20;;;14.50;;
41141;SDS011;63666;52.284;20.890;2023-03-01T08:11:02;18.50;;;14.60;;
41141;SDS011;63666;52.284;20.890;2023-03-01T08:13:34;17.20;;;14.90;;
41141;SDS011;63666;52.284;20.890;2023-03-01T08:16:10;18.30;;;15.60;;
41141;SDS011;63666;52.284;20.890;2023-03-01T08:18:41;17.40;;;14.60;;
41141;SDS011;63666;52.284;20.890;2023-03-01T08:21:14;19.10;;;14.70;;
41141;SDS011;63666;52.284;20.890;2023-03-01T08:23:45;17.10;;;14.40;;
41141;SDS011;63666;52.284;20.890;2023-03-01T08:26:21;18.10;;;14.50;;
41141;SDS011;63666;52.284;20.890;2023-03-01T08:28:55;18.70;;;14.70;;
41141;SDS011;63666;52.284;20.890;2023-03-01T08:31:36;17.10;;;14.20;;
41141;SDS011;63666;52.284;20.890;2023-03-01T08:34:13;17.40;;;14.10;;
41141;SDS011;63666;52.284;20.890;2023-03-01T08:36:49;16.80;;;13.80;;
41141;SDS011;63666;52.284;20.890;2023-03-01T08:39:22;16.30;;;13.60;;
41141;SDS011;63666;52.284;20.890;2023-03-01T08:41:58;18.20;;;13.80;;
41141;SDS011;63666;52.284;20.890;2023-03-01T08:44:29;17.20;;;13.70;;
41141;SDS011;63666;52.284;20.890;2023-03-01T08:46:59;17.70;;;13.90;;
41141;SDS011;63666;52.284;20.890;2023-03-01T08:49:31;17.40;;;14.30;;
41141;SDS011;63666;52.284;20.890;2023-03-01T08:52:04;16.60;;;13.10;;
41141;SDS011;63666;52.284;20.890;2023-03-01T08:54:35;16.60;;;13.00;;
41141;SDS011;63666;52.284;20.890;2023-03-01T08:57:06;15.80;;;13.30;;
41141;SDS011;63666;52.284;20.890;2023-03-01T08:59:40;16.70;;;12.90;;
41141;SDS011;63666;52.284;20.890;2023-03-01T09:02:16;14.50;;;12.70;;
41141;SDS011;63666;52.284;20.890;2023-03-01T09:04:50;15.40;;;12.80;;
41141;SDS011;63666;52.284;20.890;2023-03-01T09:07:23;14.70;;;12.20;;
41141;SDS011;63666;52.284;20.890;2023-03-01T09:10:00;16.60;;;12.00;;
41141;SDS011;63666;52.284;20.890;2023-03-01T09:12:33;14.80;;;10.90;;
41141;SDS011;63666;52.284;20.890;2023-03-01T09:15:07;15.30;;;11.60;;
41141;SDS011;63666;52.284;20.890;2023-03-01T09:17:42;14.60;;;11.10;;
41141;SDS011;63666;52.284;20.890;2023-03-01T09:20:16;15.90;;;11.30;;
41141;SDS011;63666;52.284;20.890;2023-03-01T09:22:46;15.10;;;11.20;;
41141;SDS011;63666;52.284;20.890;2023-03-01T09:25:26;13.70;;;11.20;;
41141;SDS011;63666;52.284;20.890;2023-03-01T09:27:58;13.50;;;10.60;;
41141;SDS011;63666;52.284;20.890;2023-03-01T09:30:31;13.70;;;10.80;;
41141;SDS011;63666;52.284;20.890;2023-03-01T09:33:03;13.00;;;10.50;;
41141;SDS011;63666;52.284;20.890;2023-03-01T09:35:33;13.80;;;10.80;;
41141;SDS011;63666;52.284;20.890;2023-03-01T09:38:16;14.70;;;10.90;;
41141;SDS011;63666;52.284;20.890;2023-03-01T09:40:49;13.80;;;10.20;;
41141;SDS011;63666;52.284;20.890;2023-03-01T09:43:25;13.20;;;10.60;;
41141;SDS011;63666;52.284;20.890;2023-03-01T09:46:04;13.30;;;10.50;;
41141;SDS011;63666;52.284;20.890;2023-03-01T09:48:42;14.10;;;10.80;;
41141;SDS011;63666;52.284;20.890;2023-03-01T09:51:19;12.90;;;10.30;;
41141;SDS011;63666;52.284;20.890;2023-03-01T09:54:02;13.10;;;10.50;;
41141;SDS011;63666;52.284;20.890;2023-03-01T09:56:37;13.20;;;9.90;;
41141;SDS011;63666;52.284;20.890;2023-03-01T09:59:22;12.50;;;9.70;;
41141;SDS011;63666;52.284;20.890;2023-03-01T10:02:00;12.60;;;9.60;;
41141;SDS011;63666;52.284;20.890;2023-03-01T10:04:49;12.40;;;9.30;;
41141;SDS011;63666;52.284;20.890;2023-03-01T10:07:29;11.90;;;9.40;;
41141;SDS011;63666;52.284;20.890;2023-03-01T10:10:23;11.90;;;9.50;;
41141;SDS011;63666;52.284;20.890;2023-03-01T10:13:00;12.30;;;9.30;;
41141;SDS011;63666;52.284;20.890;2023-03-01T10:15:41;11.60;;;9.10;;
41141;SDS011;63666;52.284;20.890;2023-03-01T10:18:20;11.20;;;8.60;;
41141;SDS011;63666;52.284;20.890;2023-03-01T10:20:55;11.90;;;8.90;;
41141;SDS011;63666;52.284;20.890;2023-03-01T10:23:35;12.10;;;9.00;;
41141;SDS011;63666;52.284;20.890;2023-03-01T10:26:24;11.40;;;8.80;;
41141;SDS011;63666;52.284;20.890;2023-03-01T10:29:06;11.20;;;8.30;;
41141;SDS011;63666;52.284;20.890;2023-03-01T10:31:43;11.60;;;8.50;;
41141;SDS011;63666;52.284;20.890;2023-03-01T10:34:21;11.40;;;8.20;;
41141;SDS011;63666;52.284;20.890;2023-03-01T10:36:58;10.80;;;8.60;;
41141;SDS011;63666;52.284;20.890;2023-03-01T10:39:56;10.80;;;8.50;;
41141;SDS011;63666;52.284;20.890;2023-03-01T10:42:29;11.60;;;8.60;;
41141;SDS011;63666;52.284;20.890;2023-03-01T10:45:16;10.70;;;8.30;;
41141;SDS011;63666;52.284;20.890;2023-03-01T10:48:08;10.80;;;8.30;;
41141;SDS011;63666;52.284;20.890;2023-03-01T10:50:45;10.60;;;7.90;;
41141;SDS011;63666;52.284;20.890;2023-03-01T10:53:24;10.30;;;8.20;;
41141;SDS011;63666;52.284;20.890;2023-03-01T10:56:00;10.30;;;8.20;;
41141;SDS011;63666;52.284;20.890;2023-03-01T10:58:58;10.90;;;7.90;;
41141;SDS011;63666;52.284;20.890;2023-03-01T11:01:32;10.30;;;7.50;;
41141;SDS011;63666;52.284;20.890;2023-03-01T11:04:13;9.80;;;7.70;;
41141;SDS011;63666;52.284;20.890;2023-03-01T11:06:59;10.00;;;7.90;;
41141;SDS011;63666;52.284;20.890;2023-03-01T11:09:35;10.60;;;8.40;;
41141;SDS011;63666;52.284;20.890;2023-03-01T11:12:14;10.20;;;7.80;;
41141;SDS011;63666;52.284;20.890;2023-03-01T11:14:49;10.50;;;7.90;;
41141;SDS011;63666;52.284;20.890;2023-03-01T11:17:26;10.70;;;7.40;;
41141;SDS011;63666;52.284;20.890;2023-03-01T11:20:04;9.50;;;7.20;;
41141;SDS011;63666;52.284;20.890;2023-03-01T11:22:46;9.90;;;7.50;;
41141;SDS011;63666;52.284;20.890;2023-03-01T11:25:21;9.70;;;7.50;;
41141;SDS011;63666;52.284;20.890;2023-03-01T11:27:59;10.00;;;7.50;;
41141;SDS011;63666;52.284;20.890;2023-03-01T11:30:37;9.40;;;7.30;;
41141;SDS011;63666;52.284;20.890;2023-03-01T11:33:16;9.50;;;7.50;;
41141;SDS011;63666;52.284;20.890;2023-03-01T11:35:55;9.70;;;7.40;;
41141;SDS011;63666;52.284;20.890;2023-03-01T11:38:34;10.20;;;7.20;;
41141;SDS011;63666;52.284;20.890;2023-03-01T11:41:10;11.40;;;6.90;;
41141;SDS011;63666;52.284;20.890;2023-03-01T11:43:52;10.10;;;7.30;;
41141;SDS011;63666;52.284;20.890;2023-03-01T11:47:07;9.80;;;7.20;;
41141;SDS011;63666;52.284;20.890;2023-03-01T11:49:56;9.60;;;6.90;;
41141;SDS011;63666;52.284;20.890;2023-03-01T11:52:44;9.40;;;6.80;;
41141;SDS011;63666;52.284;20.890;2023-03-01T11:55:41;9.40;;;7.00;;
41141;SDS011;63666;52.284;20.890;2023-03-01T11:58:29;9.90;;;7.00;;
41141;SDS011;63666;52.284;20.890;2023-03-01T12:01:27;8.40;;;6.50;;
41141;SDS011;63666;52.284;20.890;2023-03-01T12:07:37;8.30;;;6.30;;
41141;SDS011;63666;52.284;20.890;2023-03-01T12:10:23;10.70;;;6.50;;
41141;SDS011;63666;52.284;20.890;2023-03-01T12:13:22;8.70;;;6.30;;
41141;SDS011;63666;52.284;20.890;2023-03-01T12:16:22;8.10;;;6.10;;
41141;SDS011;63666;52.284;20.890;2023-03-01T12:19:19;9.00;;;5.80;;
41141;SDS011;63666;52.284;20.890;2023-03-01T12:22:26;8.40;;;6.10;;
41141;SDS011;63666;52.284;20.890;2023-03-01T12:25:19;8.00;;;5.70;;
41141;SDS011;63666;52.284;20.890;2023-03-01T12:31:36;8.10;;;5.90;;
41141;SDS011;63666;52.284;20.890;2023-03-01T12:34:59;8.50;;;5.60;;
41141;SDS011;63666;52.284;20.890;2023-03-01T12:37:51;7.90;;;5.60;;
41141;SDS011;63666;52.284;20.890;2023-03-01T12:41:01;8.40;;;5.40;;
41141;SDS011;63666;52.284;20.890;2023-03-01T12:43:50;7.50;;;5.40;;
41141;SDS011;63666;52.284;20.890;2023-03-01T12:46:40;7.60;;;5.60;;
41141;SDS011;63666;52.284;20.890;2023-03-01T12:49:17;8.10;;;5.40;;
41141;SDS011;63666;52.284;20.890;2023-03-01T12:51:53;8.10;;;5.30;;
41141;SDS011;63666;52.284;20.890;2023-03-01T12:54:33;7.40;;;5.00;;
41141;SDS011;63666;52.284;20.890;2023-03-01T12:57:15;7.40;;;5.00;;
41141;SDS011;63666;52.284;20.890;2023-03-01T13:00:02;8.20;;;5.60;;
41141;SDS011;63666;52.284;20.890;2023-03-01T13:02:45;8.10;;;5.60;;
41141;SDS011;63666;52.284;20.890;2023-03-01T13:05:38;7.50;;;5.40;;
41141;SDS011;63666;52.284;20.890;2023-03-01T13:08:19;7.50;;;4.90;;
41141;SDS011;63666;52.284;20.890;2023-03-01T13:10:57;7.40;;;4.90;;
41141;SDS011;63666;52.284;20.890;2023-03-01T13:13:31;6.90;;;4.80;;
41141;SDS011;63666;52.284;20.890;2023-03-01T13:16:39;7.80;;;5.20;;
41141;SDS011;63666;52.284;20.890;2023-03-01T13:19:15;8.20;;;5.00;;
41141;SDS011;63666;52.284;20.890;2023-03-01T13:21:53;7.40;;;5.00;;
41141;SDS011;63666;52.284;20.890;2023-03-01T13:24:40;7.30;;;4.90;;
41141;SDS011;63666;52.284;20.890;2023-03-01T13:27:23;7.20;;;5.00;;
41141;SDS011;63666;52.284;20.890;2023-03-01T13:29:57;7.10;;;4.90;;
41141;SDS011;63666;52.284;20.890;2023-03-01T13:32:35;7.60;;;4.80;;
41141;SDS011;63666;52.284;20.890;2023-03-01T13:35:42;7.20;;;5.00;;
41141;SDS011;63666;52.284;20.890;2023-03-01T13:38:38;6.90;;;5.30;;
41141;SDS011;63666;52.284;20.890;2023-03-01T13:41:16;7.30;;;4.60;;
41141;SDS011;63666;52.284;20.890;2023-03-01T13:44:15;8.00;;;4.90;;
41141;SDS011;63666;52.284;20.890;2023-03-01T13:46:53;6.90;;;4.50;;
41141;SDS011;63666;52.284;20.890;2023-03-01T13:49:35;6.50;;;4.40;;
41141;SDS011;63666;52.284;20.890;2023-03-01T13:52:34;8.40;;;4.70;;
41141;SDS011;63666;52.284;20.890;2023-03-01T13:55:19;6.40;;;4.30;;
41141;SDS011;63666;52.284;20.890;2023-03-01T13:57:59;7.00;;;4.60;;
41141;SDS011;63666;52.284;20.890;2023-03-01T14:00:38;5.90;;;4.30;;
41141;SDS011;63666;52.284;20.890;2023-03-01T14:03:16;6.70;;;4.40;;
41141;SDS011;63666;52.284;20.890;2023-03-01T14:06:00;6.80;;;4.70;;
41141;SDS011;63666;52.284;20.890;2023-03-01T14:08:44;6.40;;;4.60;;
41141;SDS011;63666;52.284;20.890;2023-03-01T14:11:37;6.60;;;4.50;;
41141;SDS011;63666;52.284;20.890;2023-03-01T14:17:52;6.40;;;4.50;;
41141;SDS011;63666;52.284;20.890;2023-03-01T14:20:37;6.40;;;4.50;;
41141;SDS011;63666;52.284;20.890;2023-03-01T14:23:13;7.30;;;4.80;;
41141;SDS011;63666;52.284;20.890;2023-03-01T14:25:51;7.20;;;4.80;;
41141;SDS011;63666;52.284;20.890;2023-03-01T14:28:29;6.80;;;4.50;;
41141;SDS011;63666;52.284;20.890;2023-03-01T14:31:02;6.30;;;4.40;;
41141;SDS011;63666;52.284;20.890;2023-03-01T14:33:36;6.40;;;4.20;;
41141;SDS011;63666;52.284;20.890;2023-03-01T14:36:11;6.70;;;4.60;;
41141;SDS011;63666;52.284;20.890;2023-03-01T14:38:47;6.50;;;4.60;;
41141;SDS011;63666;52.284;20.890;2023-03-01T14:41:23;7.10;;;4.80;;
41141;SDS011;63666;52.284;20.890;2023-03-01T14:43:56;7.30;;;4.70;;
41141;SDS011;63666;52.284;20.890;2023-03-01T14:46:33;7.70;;;5.10;;
41141;SDS011;63666;52.284;20.890;2023-03-01T14:49:10;6.70;;;4.70;;
41141;SDS011;63666;52.284;20.890;2023-03-01T14:51:51;7.70;;;5.00;;
41141;SDS011;63666;52.284;20.890;2023-03-01T14:54:27;7.90;;;5.10;;
41141;SDS011;63666;52.284;20.890;2023-03-01T14:57:02;7.10;;;4.90;;
41141;SDS011;63666;52.284;20.890;2023-03-01T14:59:33;6.90;;;5.10;;
41141;SDS011;63666;52.284;20.890;2023-03-01T15:02:04;7.80;;;5.30;;
41141;SDS011;63666;52.284;20.890;2023-03-01T15:04:38;7.60;;;5.20;;
41141;SDS011;63666;52.284;20.890;2023-03-01T15:07:13;8.00;;;5.30;;
41141;SDS011;63666;52.284;20.890;2023-03-01T15:09:44;7.20;;;5.00;;
41141;SDS011;63666;52.284;20.890;2023-03-01T15:12:36;8.20;;;5.30;;
41141;SDS011;63666;52.284;20.890;2023-03-01T15:15:36;8.80;;;5.70;;
41141;SDS011;63666;52.284;20.890;2023-03-01T15:18:16;8.40;;;5.90;;
41141;SDS011;63666;52.284;20.890;2023-03-01T15:20:50;9.50;;;6.30;;
41141;SDS011;63666;52.284;20.890;2023-03-01T15:23:25;9.50;;;6.30;;